sensor_id;sensor_type;location;lat;lon;timestamp;temperature;humidity
52895;DHT22;38759;53.396;6.722;2022-08-18T00:01:41;18.60;99.90
52895;DHT22;38759;53.396;6.722;2022-08-18T00:04:08;18.60;99.90
52895;DHT22;38759;53.396;6.722;2022-08-18T00:06:34;18.60;99.90
52895;DHT22;38759;53.396;6.722;2022-08-18T00:09:02;18.70;99.90
52895;DHT22;38759;53.396;6.722;2022-08-18T00:11:31;18.70;99.90
52895;DHT22;38759;53.396;6.722;2022-08-18T00:13:57;18.70;99.90
52895;DHT22;38759;53.396;6.722;2022-08-18T00:16:23;18.70;99.90
52895;DHT22;38759;53.396;6.722;2022-08-18T00:18:48;18.80;99.90
52895;DHT22;38759;53.396;6.722;2022-08-18T00:21:14;18.80;99.90
52895;DHT22;38759;53.396;6.722;2022-08-18T00:23:40;18.80;99.90
52895;DHT22;38759;53.396;6.722;2022-08-18T00:26:06;18.80;99.90
52895;DHT22;38759;53.396;6.722;2022-08-18T00:28:32;18.80;99.90
52895;DHT22;38759;53.396;6.722;2022-08-18T00:30:58;18.90;99.90
52895;DHT22;38759;53.396;6.722;2022-08-18T00:33:23;18.90;99.90
52895;DHT22;38759;53.396;6.722;2022-08-18T00:35:49;18.90;99.90
52895;DHT22;38759;53.396;6.722;2022-08-18T00:38:15;18.80;99.90
52895;DHT22;38759;53.396;6.722;2022-08-18T00:40:44;18.90;99.90
52895;DHT22;38759;53.396;6.722;2022-08-18T00:43:24;18.80;99.90
52895;DHT22;38759;53.396;6.722;2022-08-18T00:45:52;18.90;99.90
52895;DHT22;38759;53.396;6.722;2022-08-18T00:48:18;18.80;99.90
52895;DHT22;38759;53.396;6.722;2022-08-18T00:50:58;18.80;99.90
52895;DHT22;38759;53.396;6.722;2022-08-18T00:53:37;18.90;99.90
52895;DHT22;38759;53.396;6.722;2022-08-18T00:56:10;18.80;99.90
52895;DHT22;38759;53.396;6.722;2022-08-18T00:59:04;18.80;99.90
52895;DHT22;38759;53.396;6.722;2022-08-18T01:01:31;18.80;99.90
52895;DHT22;38759;53.396;6.722;2022-08-18T01:04:11;18.80;99.90
52895;DHT22;38759;53.396;6.722;2022-08-18T01:06:43;18.80;99.90
52895;DHT22;38759;53.396;6.722;2022-08-18T01:09:11;18.80;99.90
52895;DHT22;38759;53.396;6.722;2022-08-18T01:11:38;18.80;99.90
52895;DHT22;38759;53.396;6.722;2022-08-18T01:14:07;18.80;99.90
52895;DHT22;38759;53.396;6.722;2022-08-18T01:16:33;18.70;99.90
52895;DHT22;38759;53.396;6.722;2022-08-18T01:19:18;18.70;99.90
52895;DHT22;38759;53.396;6.722;2022-08-18T01:24:50;18.60;99.90
52895;DHT22;38759;53.396;6.722;2022-08-18T01:27:35;18.60;99.90
52895;DHT22;38759;53.396;6.722;2022-08-18T01:30:06;18.60;99.90
52895;DHT22;38759;53.396;6.722;2022-08-18T01:32:34;18.70;99.90
52895;DHT22;38759;53.396;6.722;2022-08-18T01:35:00;18.60;99.90
52895;DHT22;38759;53.396;6.722;2022-08-18T01:37:27;18.60;99.90
52895;DHT22;38759;53.396;6.722;2022-08-18T01:39:53;18.60;99.90
52895;DHT22;38759;53.396;6.722;2022-08-18T01:42:19;18.60;99.90
52895;DHT22;38759;53.396;6.722;2022-08-18T01:44:47;18.60;99.90
52895;DHT22;38759;53.396;6.722;2022-08-18T01:47:16;18.50;99.90
52895;DHT22;38759;53.396;6.722;2022-08-18T01:49:43;18.50;99.90
52895;DHT22;38759;53.396;6.722;2022-08-18T01:52:13;18.40;99.90
52895;DHT22;38759;53.396;6.722;2022-08-18T01:54:42;18.50;99.90
52895;DHT22;38759;53.396;6.722;2022-08-18T01:57:08;18.40;99.90
52895;DHT22;38759;53.396;6.722;2022-08-18T01:59:38;18.40;99.90
52895;DHT22;38759;53.396;6.722;2022-08-18T02:02:04;18.40;99.90
52895;DHT22;38759;53.396;6.722;2022-08-18T02:04:31;18.40;99.90
52895;DHT22;38759;53.396;6.722;2022-08-18T02:06:59;18.40;99.90
52895;DHT22;38759;53.396;6.722;2022-08-18T02:09:27;18.40;99.90
52895;DHT22;38759;53.396;6.722;2022-08-18T02:11:54;18.40;99.90
52895;DHT22;38759;53.396;6.722;2022-08-18T02:14:20;18.50;99.90
52895;DHT22;38759;53.396;6.722;2022-08-18T02:16:46;18.50;99.90
52895;DHT22;38759;53.396;6.722;2022-08-18T02:19:12;18.50;99.90
52895;DHT22;38759;53.396;6.722;2022-08-18T02:21:39;18.50;99.90
52895;DHT22;38759;53.396;6.722;2022-08-18T02:24:04;18.50;99.90
52895;DHT22;38759;53.396;6.722;2022-08-18T02:26:30;18.50;99.90
52895;DHT22;38759;53.396;6.722;2022-08-18T02:28:56;18.60;99.90
52895;DHT22;38759;53.396;6.722;2022-08-18T02:31:23;18.60;99.90
52895;DHT22;38759;53.396;6.722;2022-08-18T02:33:50;18.60;99.90
52895;DHT22;38759;53.396;6.722;2022-08-18T02:36:15;18.60;99.90
52895;DHT22;38759;53.396;6.722;2022-08-18T02:38:41;18.60;99.90
52895;DHT22;38759;53.396;6.722;2022-08-18T02:41:09;18.70;99.90
52895;DHT22;38759;53.396;6.722;2022-08-18T02:43:37;18.70;99.90
52895;DHT22;38759;53.396;6.722;2022-08-18T02:46:04;18.70;99.90
52895;DHT22;38759;53.396;6.722;2022-08-18T02:48:31;18.70;99.90
52895;DHT22;38759;53.396;6.722;2022-08-18T02:51:17;18.80;99.90
52895;DHT22;38759;53.396;6.722;2022-08-18T02:53:45;18.80;99.90
52895;DHT22;38759;53.396;6.722;2022-08-18T02:56:18;18.80;99.90
52895;DHT22;38759;53.396;6.722;2022-08-18T02:59:01;18.80;99.90
52895;DHT22;38759;53.396;6.722;2022-08-18T03:01:30;18.80;99.90
52895;DHT22;38759;53.396;6.722;2022-08-18T03:03:58;18.80;99.90
52895;DHT22;38759;53.396;6.722;2022-08-18T03:06:25;18.90;99.90
52895;DHT22;38759;53.396;6.722;2022-08-18T03:08:51;18.90;99.90
52895;DHT22;38759;53.396;6.722;2022-08-18T03:11:21;18.90;99.90
52895;DHT22;38759;53.396;6.722;2022-08-18T03:13:47;18.90;99.90
52895;DHT22;38759;53.396;6.722;2022-08-18T03:16:13;18.90;99.90
52895;DHT22;38759;53.396;6.722;2022-08-18T03:18:40;18.90;99.90
52895;DHT22;38759;53.396;6.722;2022-08-18T03:21:22;18.90;99.90
52895;DHT22;38759;53.396;6.722;2022-08-18T03:23:49;19.00;99.90
52895;DHT22;38759;53.396;6.722;2022-08-18T03:26:16;18.90;99.90
52895;DHT22;38759;53.396;6.722;2022-08-18T03:28:46;18.90;99.90
52895;DHT22;38759;53.396;6.722;2022-08-18T03:31:13;18.90;99.90
52895;DHT22;38759;53.396;6.722;2022-08-18T03:33:41;18.90;99.90
52895;DHT22;38759;53.396;6.722;2022-08-18T03:36:18;18.90;99.90
52895;DHT22;38759;53.396;6.722;2022-08-18T03:38:45;18.90;99.90
52895;DHT22;38759;53.396;6.722;2022-08-18T03:41:14;18.90;99.90
52895;DHT22;38759;53.396;6.722;2022-08-18T03:43:40;19.00;99.90
52895;DHT22;38759;53.396;6.722;2022-08-18T03:46:09;18.90;99.90
52895;DHT22;38759;53.396;6.722;2022-08-18T03:48:36;18.90;99.90
52895;DHT22;38759;53.396;6.722;2022-08-18T03:51:07;18.90;99.90
52895;DHT22;38759;53.396;6.722;2022-08-18T03:53:34;18.90;99.90
52895;DHT22;38759;53.396;6.722;2022-08-18T03:56:00;18.90;99.90
52895;DHT22;38759;53.396;6.722;2022-08-18T03:58:26;18.90;99.90
52895;DHT22;38759;53.396;6.722;2022-08-18T04:00:53;19.00;99.90
52895;DHT22;38759;53.396;6.722;2022-08-18T04:03:19;19.00;99.90
52895;DHT22;38759;53.396;6.722;2022-08-18T04:05:45;18.90;99.90
52895;DHT22;38759;53.396;6.722;2022-08-18T04:08:11;18.90;99.90
52895;DHT22;38759;53.396;6.722;2022-08-18T04:10:37;19.00;99.90
52895;DHT22;38759;53.396;6.722;2022-08-18T04:13:03;18.90;99.90
52895;DHT22;38759;53.396;6.722;2022-08-18T04:15:32;19.00;99.90
52895;DHT22;38759;53.396;6.722;2022-08-18T04:17:59;18.90;99.90
52895;DHT22;38759;53.396;6.722;2022-08-18T04:20:25;19.00;99.90
52895;DHT22;38759;53.396;6.722;2022-08-18T04:22:50;19.00;99.90
52895;DHT22;38759;53.396;6.722;2022-08-18T04:25:16;19.00;99.90
52895;DHT22;38759;53.396;6.722;2022-08-18T04:27:42;19.00;99.90
52895;DHT22;38759;53.396;6.722;2022-08-18T04:30:08;19.00;99.90
52895;DHT22;38759;53.396;6.722;2022-08-18T04:32:35;19.00;99.90
52895;DHT22;38759;53.396;6.722;2022-08-18T04:35:01;19.00;99.90
52895;DHT22;38759;53.396;6.722;2022-08-18T04:37:26;19.00;99.90
52895;DHT22;38759;53.396;6.722;2022-08-18T04:39:52;19.00;99.90
52895;DHT22;38759;53.396;6.722;2022-08-18T04:42:18;19.00;99.90
52895;DHT22;38759;53.396;6.722;2022-08-18T04:44:43;19.00;99.90
52895;DHT22;38759;53.396;6.722;2022-08-18T04:47:09;19.00;99.90
52895;DHT22;38759;53.396;6.722;2022-08-18T04:49:36;19.00;99.90
52895;DHT22;38759;53.396;6.722;2022-08-18T04:52:03;19.00;99.90
52895;DHT22;38759;53.396;6.722;2022-08-18T04:54:48;19.00;99.90
52895;DHT22;38759;53.396;6.722;2022-08-18T04:57:17;19.00;99.90
52895;DHT22;38759;53.396;6.722;2022-08-18T04:59:44;19.00;99.90
52895;DHT22;38759;53.396;6.722;2022-08-18T05:02:11;19.00;99.90
52895;DHT22;38759;53.396;6.722;2022-08-18T05:04:38;19.00;99.90
52895;DHT22;38759;53.396;6.722;2022-08-18T05:07:07;19.00;99.90
52895;DHT22;38759;53.396;6.722;2022-08-18T05:09:33;19.00;99.90
52895;DHT22;38759;53.396;6.722;2022-08-18T05:12:04;19.00;99.90
52895;DHT22;38759;53.396;6.722;2022-08-18T05:14:31;19.10;99.90
52895;DHT22;38759;53.396;6.722;2022-08-18T05:17:01;19.10;99.90
52895;DHT22;38759;53.396;6.722;2022-08-18T05:19:28;19.10;99.90
52895;DHT22;38759;53.396;6.722;2022-08-18T05:21:56;19.10;99.90
52895;DHT22;38759;53.396;6.722;2022-08-18T05:24:23;19.10;99.90
52895;DHT22;38759;53.396;6.722;2022-08-18T05:26:50;19.10;99.90
52895;DHT22;38759;53.396;6.722;2022-08-18T05:29:18;19.10;99.90
52895;DHT22;38759;53.396;6.722;2022-08-18T05:31:51;19.10;99.90
52895;DHT22;38759;53.396;6.722;2022-08-18T05:34:18;19.10;99.90
52895;DHT22;38759;53.396;6.722;2022-08-18T05:42:07;19.20;99.90
52895;DHT22;38759;53.396;6.722;2022-08-18T05:44:39;19.20;99.90
52895;DHT22;38759;53.396;6.722;2022-08-18T05:47:11;19.20;99.90
52895;DHT22;38759;53.396;6.722;2022-08-18T05:49:38;19.20;99.90
52895;DHT22;38759;53.396;6.722;2022-08-18T05:52:08;19.20;99.90
52895;DHT22;38759;53.396;6.722;2022-08-18T05:54:49;19.30;99.90
52895;DHT22;38759;53.396;6.722;2022-08-18T05:57:47;19.30;99.90
52895;DHT22;38759;53.396;6.722;2022-08-18T06:00:17;19.30;99.90
52895;DHT22;38759;53.396;6.722;2022-08-18T06:02:54;19.30;99.90
52895;DHT22;38759;53.396;6.722;2022-08-18T06:05:34;19.30;99.90
52895;DHT22;38759;53.396;6.722;2022-08-18T06:08:11;19.30;99.90
52895;DHT22;38759;53.396;6.722;2022-08-18T06:10:46;19.30;99.90
52895;DHT22;38759;53.396;6.722;2022-08-18T06:13:12;19.30;99.90
52895;DHT22;38759;53.396;6.722;2022-08-18T06:26:22;19.30;99.90
52895;DHT22;38759;53.396;6.722;2022-08-18T06:29:20;19.30;99.90
52895;DHT22;38759;53.396;6.722;2022-08-18T06:37:38;19.30;99.90
52895;DHT22;38759;53.396;6.722;2022-08-18T06:40:26;19.20;99.90
52895;DHT22;38759;53.396;6.722;2022-08-18T06:42:52;19.20;99.90
52895;DHT22;38759;53.396;6.722;2022-08-18T06:45:22;19.20;99.90
52895;DHT22;38759;53.396;6.722;2022-08-18T06:47:56;19.20;99.90
52895;DHT22;38759;53.396;6.722;2022-08-18T06:50:33;19.20;99.90
52895;DHT22;38759;53.396;6.722;2022-08-18T06:53:06;19.20;99.90
52895;DHT22;38759;53.396;6.722;2022-08-18T06:55:35;19.10;99.90
52895;DHT22;38759;53.396;6.722;2022-08-18T07:01:05;19.10;99.90
52895;DHT22;38759;53.396;6.722;2022-08-18T07:08:48;19.10;99.90
52895;DHT22;38759;53.396;6.722;2022-08-18T07:11:22;19.20;99.90
52895;DHT22;38759;53.396;6.722;2022-08-18T07:14:41;19.20;99.90
52895;DHT22;38759;53.396;6.722;2022-08-18T07:16:41;19.20;99.90
52895;DHT22;38759;53.396;6.722;2022-08-18T07:19:08;19.20;99.90
52895;DHT22;38759;53.396;6.722;2022-08-18T07:21:36;19.20;99.90
52895;DHT22;38759;53.396;6.722;2022-08-18T07:24:12;19.30;99.90
52895;DHT22;38759;53.396;6.722;2022-08-18T07:29:25;19.30;99.90
52895;DHT22;38759;53.396;6.722;2022-08-18T07:31:53;19.30;99.90
52895;DHT22;38759;53.396;6.722;2022-08-18T07:34:29;19.30;99.90
52895;DHT22;38759;53.396;6.722;2022-08-18T07:37:18;19.40;99.90
52895;DHT22;38759;53.396;6.722;2022-08-18T07:39:57;19.40;99.90
52895;DHT22;38759;53.396;6.722;2022-08-18T07:42:36;19.40;99.90
52895;DHT22;38759;53.396;6.722;2022-08-18T07:45:11;19.40;99.90
52895;DHT22;38759;53.396;6.722;2022-08-18T07:47:51;19.40;99.90
52895;DHT22;38759;53.396;6.722;2022-08-18T07:50:19;19.50;99.90
52895;DHT22;38759;53.396;6.722;2022-08-18T07:55:34;19.50;99.90
52895;DHT22;38759;53.396;6.722;2022-08-18T07:58:26;19.60;99.90
52895;DHT22;38759;53.396;6.722;2022-08-18T08:03:54;19.70;99.90
52895;DHT22;38759;53.396;6.722;2022-08-18T08:06:40;19.70;99.90
52895;DHT22;38759;53.396;6.722;2022-08-18T08:09:36;19.70;99.90
52895;DHT22;38759;53.396;6.722;2022-08-18T08:14:46;19.70;99.90
52895;DHT22;38759;53.396;6.722;2022-08-18T08:17:16;19.70;99.90
52895;DHT22;38759;53.396;6.722;2022-08-18T08:23:18;19.70;99.90
52895;DHT22;38759;53.396;6.722;2022-08-18T08:31:15;19.80;99.90
52895;DHT22;38759;53.396;6.722;2022-08-18T08:33:48;19.90;99.90
52895;DHT22;38759;53.396;6.722;2022-08-18T08:36:23;19.90;99.90
52895;DHT22;38759;53.396;6.722;2022-08-18T08:44:51;20.10;99.90
52895;DHT22;38759;53.396;6.722;2022-08-18T08:47:25;20.20;99.90
52895;DHT22;38759;53.396;6.722;2022-08-18T08:50:00;20.20;99.90
52895;DHT22;38759;53.396;6.722;2022-08-18T08:52:49;20.20;99.90
52895;DHT22;38759;53.396;6.722;2022-08-18T08:55:21;20.20;99.90
52895;DHT22;38759;53.396;6.722;2022-08-18T08:58:01;20.30;99.90
52895;DHT22;38759;53.396;6.722;2022-08-18T09:00:28;20.30;99.90
52895;DHT22;38759;53.396;6.722;2022-08-18T09:05:29;20.30;99.90
52895;DHT22;38759;53.396;6.722;2022-08-18T09:08:35;20.30;99.90
52895;DHT22;38759;53.396;6.722;2022-08-18T09:16:55;20.20;99.90
52895;DHT22;38759;53.396;6.722;2022-08-18T09:25:52;20.20;99.90
52895;DHT22;38759;53.396;6.722;2022-08-18T09:28:43;20.20;99.90
52895;DHT22;38759;53.396;6.722;2022-08-18T09:31:17;20.20;99.90
52895;DHT22;38759;53.396;6.722;2022-08-18T09:36:59;20.30;99.90
52895;DHT22;38759;53.396;6.722;2022-08-18T09:39:37;20.30;99.90
52895;DHT22;38759;53.396;6.722;2022-08-18T09:42:39;20.40;99.90
52895;DHT22;38759;53.396;6.722;2022-08-18T09:48:00;20.60;99.90
52895;DHT22;38759;53.396;6.722;2022-08-18T09:52:55;21.00;99.90
52895;DHT22;38759;53.396;6.722;2022-08-18T10:04:16;21.80;99.90
52895;DHT22;38759;53.396;6.722;2022-08-18T10:06:46;21.80;99.90
52895;DHT22;38759;53.396;6.722;2022-08-18T10:22:57;21.60;99.90
52895;DHT22;38759;53.396;6.722;2022-08-18T10:25:39;21.60;99.90
52895;DHT22;38759;53.396;6.722;2022-08-18T10:28:10;21.60;99.90
52895;DHT22;38759;53.396;6.722;2022-08-18T10:31:05;21.60;99.90
52895;DHT22;38759;53.396;6.722;2022-08-18T10:39:20;21.60;99.90
52895;DHT22;38759;53.396;6.722;2022-08-18T10:44:19;21.60;99.90
52895;DHT22;38759;53.396;6.722;2022-08-18T10:46:47;21.50;99.90
52895;DHT22;38759;53.396;6.722;2022-08-18T10:57:12;21.60;99.90
52895;DHT22;38759;53.396;6.722;2022-08-18T11:00:01;21.60;99.90
52895;DHT22;38759;53.396;6.722;2022-08-18T11:05:26;21.40;99.90
52895;DHT22;38759;53.396;6.722;2022-08-18T11:07:58;21.40;99.90
52895;DHT22;38759;53.396;6.722;2022-08-18T11:10:40;21.40;99.90
52895;DHT22;38759;53.396;6.722;2022-08-18T11:13:34;21.40;99.90
52895;DHT22;38759;53.396;6.722;2022-08-18T11:18:48;21.40;99.90
52895;DHT22;38759;53.396;6.722;2022-08-18T11:26:51;21.50;99.90
52895;DHT22;38759;53.396;6.722;2022-08-18T11:29:27;21.50;99.90
52895;DHT22;38759;53.396;6.722;2022-08-18T11:32:00;21.60;99.90
52895;DHT22;38759;53.396;6.722;2022-08-18T11:34:46;21.60;99.90
52895;DHT22;38759;53.396;6.722;2022-08-18T11:39:50;21.80;99.90
52895;DHT22;38759;53.396;6.722;2022-08-18T11:42:18;21.70;99.90
52895;DHT22;38759;53.396;6.722;2022-08-18T11:44:45;21.70;99.90
52895;DHT22;38759;53.396;6.722;2022-08-18T11:47:20;21.60;99.90
52895;DHT22;38759;53.396;6.722;2022-08-18T11:49:56;21.50;99.90
52895;DHT22;38759;53.396;6.722;2022-08-18T11:52:28;21.40;99.90
52895;DHT22;38759;53.396;6.722;2022-08-18T11:55:04;21.40;99.90
52895;DHT22;38759;53.396;6.722;2022-08-18T11:57:39;21.30;99.90
52895;DHT22;38759;53.396;6.722;2022-08-18T12:00:35;21.30;99.90
52895;DHT22;38759;53.396;6.722;2022-08-18T12:03:07;21.30;99.90
52895;DHT22;38759;53.396;6.722;2022-08-18T12:05:47;21.40;99.90
52895;DHT22;38759;53.396;6.722;2022-08-18T12:08:35;21.40;99.90
52895;DHT22;38759;53.396;6.722;2022-08-18T12:11:26;21.50;99.90
52895;DHT22;38759;53.396;6.722;2022-08-18T12:14:20;21.50;99.90
52895;DHT22;38759;53.396;6.722;2022-08-18T12:16:46;21.50;99.90
52895;DHT22;38759;53.396;6.722;2022-08-18T12:19:13;21.50;99.90
52895;DHT22;38759;53.396;6.722;2022-08-18T12:21:42;21.50;99.90
52895;DHT22;38759;53.396;6.722;2022-08-18T12:24:17;21.50;99.90
52895;DHT22;38759;53.396;6.722;2022-08-18T12:26:44;21.60;99.90
52895;DHT22;38759;53.396;6.722;2022-08-18T12:29:10;21.80;99.90
52895;DHT22;38759;53.396;6.722;2022-08-18T12:31:35;21.90;99.90
52895;DHT22;38759;53.396;6.722;2022-08-18T12:34:01;22.00;99.90
52895;DHT22;38759;53.396;6.722;2022-08-18T12:36:27;22.00;99.90
52895;DHT22;38759;53.396;6.722;2022-08-18T12:38:54;22.00;99.90
52895;DHT22;38759;53.396;6.722;2022-08-18T12:41:21;22.00;99.90
52895;DHT22;38759;53.396;6.722;2022-08-18T12:43:47;22.00;99.90
52895;DHT22;38759;53.396;6.722;2022-08-18T12:46:13;22.10;99.90
52895;DHT22;38759;53.396;6.722;2022-08-18T12:48:39;22.30;99.90
52895;DHT22;38759;53.396;6.722;2022-08-18T12:51:05;22.60;99.90
52895;DHT22;38759;53.396;6.722;2022-08-18T12:53:32;22.90;99.90
52895;DHT22;38759;53.396;6.722;2022-08-18T12:55:58;23.10;99.90
52895;DHT22;38759;53.396;6.722;2022-08-18T12:58:24;23.20;99.90
52895;DHT22;38759;53.396;6.722;2022-08-18T13:00:51;23.40;99.90
52895;DHT22;38759;53.396;6.722;2022-08-18T13:03:17;23.70;99.90
52895;DHT22;38759;53.396;6.722;2022-08-18T13:05:44;23.80;99.90
52895;DHT22;38759;53.396;6.722;2022-08-18T13:08:19;24.10;99.90
52895;DHT22;38759;53.396;6.722;2022-08-18T13:10:45;24.30;99.90
52895;DHT22;38759;53.396;6.722;2022-08-18T13:13:17;24.40;99.90
52895;DHT22;38759;53.396;6.722;2022-08-18T13:15:45;24.60;99.90
52895;DHT22;38759;53.396;6.722;2022-08-18T13:18:11;24.80;99.90
52895;DHT22;38759;53.396;6.722;2022-08-18T13:20:38;24.90;99.90
52895;DHT22;38759;53.396;6.722;2022-08-18T13:23:04;25.00;99.90
52895;DHT22;38759;53.396;6.722;2022-08-18T13:25:30;25.10;99.90
52895;DHT22;38759;53.396;6.722;2022-08-18T13:27:55;25.00;99.90
52895;DHT22;38759;53.396;6.722;2022-08-18T13:30:22;25.00;99.90
52895;DHT22;38759;53.396;6.722;2022-08-18T13:32:49;24.90;99.90
52895;DHT22;38759;53.396;6.722;2022-08-18T13:35:15;24.70;99.90
52895;DHT22;38759;53.396;6.722;2022-08-18T13:37:41;24.60;99.90
52895;DHT22;38759;53.396;6.722;2022-08-18T13:40:08;24.50;99.90
52895;DHT22;38759;53.396;6.722;2022-08-18T13:42:46;24.60;99.90
52895;DHT22;38759;53.396;6.722;2022-08-18T13:45:18;24.70;99.90
52895;DHT22;38759;53.396;6.722;2022-08-18T13:47:45;24.70;99.90
52895;DHT22;38759;53.396;6.722;2022-08-18T13:50:11;24.60;99.90
52895;DHT22;38759;53.396;6.722;2022-08-18T13:52:38;24.70;99.90
52895;DHT22;38759;53.396;6.722;2022-08-18T13:55:07;24.60;99.90
52895;DHT22;38759;53.396;6.722;2022-08-18T13:57:34;24.70;99.90
52895;DHT22;38759;53.396;6.722;2022-08-18T14:00:00;24.70;99.90
52895;DHT22;38759;53.396;6.722;2022-08-18T14:02:25;24.80;99.90
52895;DHT22;38759;53.396;6.722;2022-08-18T14:04:51;24.80;99.90
52895;DHT22;38759;53.396;6.722;2022-08-18T14:07:20;25.00;99.90
52895;DHT22;38759;53.396;6.722;2022-08-18T14:09:46;25.20;99.90
52895;DHT22;38759;53.396;6.722;2022-08-18T14:12:22;25.30;99.90
52895;DHT22;38759;53.396;6.722;2022-08-18T14:14:49;25.50;99.90
52895;DHT22;38759;53.396;6.722;2022-08-18T14:17:15;25.50;99.90
52895;DHT22;38759;53.396;6.722;2022-08-18T14:19:41;25.50;99.90
52895;DHT22;38759;53.396;6.722;2022-08-18T14:22:25;25.30;99.90
52895;DHT22;38759;53.396;6.722;2022-08-18T14:25:09;25.10;99.90
52895;DHT22;38759;53.396;6.722;2022-08-18T14:27:53;24.90;99.90
52895;DHT22;38759;53.396;6.722;2022-08-18T14:30:19;24.70;99.90
52895;DHT22;38759;53.396;6.722;2022-08-18T14:32:45;24.60;99.90
52895;DHT22;38759;53.396;6.722;2022-08-18T14:35:13;24.40;99.90
52895;DHT22;38759;53.396;6.722;2022-08-18T14:37:40;24.30;99.90
52895;DHT22;38759;53.396;6.722;2022-08-18T14:40:07;24.20;99.90
52895;DHT22;38759;53.396;6.722;2022-08-18T14:42:33;24.00;99.90
52895;DHT22;38759;53.396;6.722;2022-08-18T14:44:59;24.00;99.90
52895;DHT22;38759;53.396;6.722;2022-08-18T14:47:25;23.80;99.90
52895;DHT22;38759;53.396;6.722;2022-08-18T14:49:53;23.70;99.90
52895;DHT22;38759;53.396;6.722;2022-08-18T14:52:19;23.70;99.90
52895;DHT22;38759;53.396;6.722;2022-08-18T14:54:48;23.70;99.90
52895;DHT22;38759;53.396;6.722;2022-08-18T14:57:15;23.80;99.90
52895;DHT22;38759;53.396;6.722;2022-08-18T14:59:41;24.00;99.90
52895;DHT22;38759;53.396;6.722;2022-08-18T15:02:08;24.10;99.90
52895;DHT22;38759;53.396;6.722;2022-08-18T15:04:35;24.00;99.90
52895;DHT22;38759;53.396;6.722;2022-08-18T15:07:01;24.00;99.90
52895;DHT22;38759;53.396;6.722;2022-08-18T15:09:27;23.90;99.90
52895;DHT22;38759;53.396;6.722;2022-08-18T15:11:58;23.80;99.90
52895;DHT22;38759;53.396;6.722;2022-08-18T15:14:29;23.80;99.90
52895;DHT22;38759;53.396;6.722;2022-08-18T15:17:03;23.70;99.90
52895;DHT22;38759;53.396;6.722;2022-08-18T15:19:31;23.60;99.90
52895;DHT22;38759;53.396;6.722;2022-08-18T15:21:56;23.50;99.90
52895;DHT22;38759;53.396;6.722;2022-08-18T15:24:42;23.40;99.90
52895;DHT22;38759;53.396;6.722;2022-08-18T15:27:35;23.30;99.90
52895;DHT22;38759;53.396;6.722;2022-08-18T15:30:10;23.30;99.90
52895;DHT22;38759;53.396;6.722;2022-08-18T15:32:36;23.20;99.90
52895;DHT22;38759;53.396;6.722;2022-08-18T15:35:03;23.40;99.90
52895;DHT22;38759;53.396;6.722;2022-08-18T15:37:35;23.50;99.90
52895;DHT22;38759;53.396;6.722;2022-08-18T15:40:10;23.70;99.90
52895;DHT22;38759;53.396;6.722;2022-08-18T15:42:43;23.70;99.90
52895;DHT22;38759;53.396;6.722;2022-08-18T15:45:10;23.80;99.90
52895;DHT22;38759;53.396;6.722;2022-08-18T15:47:37;23.90;99.90
52895;DHT22;38759;53.396;6.722;2022-08-18T15:50:04;23.90;99.90
52895;DHT22;38759;53.396;6.722;2022-08-18T15:52:30;23.90;99.90
52895;DHT22;38759;53.396;6.722;2022-08-18T15:54:59;24.00;99.90
52895;DHT22;38759;53.396;6.722;2022-08-18T15:57:25;24.00;99.90
52895;DHT22;38759;53.396;6.722;2022-08-18T15:59:51;24.00;99.90
52895;DHT22;38759;53.396;6.722;2022-08-18T16:02:17;24.00;99.90
52895;DHT22;38759;53.396;6.722;2022-08-18T16:04:42;24.00;99.90
52895;DHT22;38759;53.396;6.722;2022-08-18T16:07:08;24.10;99.90
52895;DHT22;38759;53.396;6.722;2022-08-18T16:09:34;24.00;99.90
52895;DHT22;38759;53.396;6.722;2022-08-18T16:12:01;24.00;99.90
52895;DHT22;38759;53.396;6.722;2022-08-18T16:14:27;24.00;99.90
52895;DHT22;38759;53.396;6.722;2022-08-18T16:16:52;23.90;99.90
52895;DHT22;38759;53.396;6.722;2022-08-18T16:19:18;23.90;99.90
52895;DHT22;38759;53.396;6.722;2022-08-18T16:21:44;23.90;99.90
52895;DHT22;38759;53.396;6.722;2022-08-18T16:24:10;23.80;99.90
52895;DHT22;38759;53.396;6.722;2022-08-18T16:26:36;23.70;99.90
52895;DHT22;38759;53.396;6.722;2022-08-18T16:29:02;23.70;99.90
52895;DHT22;38759;53.396;6.722;2022-08-18T16:31:28;23.70;99.90
52895;DHT22;38759;53.396;6.722;2022-08-18T16:33:55;23.70;99.90
52895;DHT22;38759;53.396;6.722;2022-08-18T16:36:23;23.60;99.90
52895;DHT22;38759;53.396;6.722;2022-08-18T16:38:53;23.60;99.90
52895;DHT22;38759;53.396;6.722;2022-08-18T16:41:19;23.50;99.90
52895;DHT22;38759;53.396;6.722;2022-08-18T16:43:46;23.40;99.90
52895;DHT22;38759;53.396;6.722;2022-08-18T16:46:23;23.40;99.90
52895;DHT22;38759;53.396;6.722;2022-08-18T16:48:52;23.30;99.90
52895;DHT22;38759;53.396;6.722;2022-08-18T16:51:20;23.30;99.90
52895;DHT22;38759;53.396;6.722;2022-08-18T16:53:47;23.20;99.90
52895;DHT22;38759;53.396;6.722;2022-08-18T16:56:20;23.20;99.90
52895;DHT22;38759;53.396;6.722;2022-08-18T16:58:46;23.10;99.90
52895;DHT22;38759;53.396;6.722;2022-08-18T17:01:31;23.00;99.90
52895;DHT22;38759;53.396;6.722;2022-08-18T17:04:21;22.90;99.90
52895;DHT22;38759;53.396;6.722;2022-08-18T17:06:48;22.90;99.90
52895;DHT22;38759;53.396;6.722;2022-08-18T17:09:14;22.80;99.90
52895;DHT22;38759;53.396;6.722;2022-08-18T17:11:40;22.70;99.90
52895;DHT22;38759;53.396;6.722;2022-08-18T17:14:07;22.60;99.90
52895;DHT22;38759;53.396;6.722;2022-08-18T17:16:35;22.60;99.90
52895;DHT22;38759;53.396;6.722;2022-08-18T17:19:02;22.50;99.90
52895;DHT22;38759;53.396;6.722;2022-08-18T17:21:30;22.40;99.90
52895;DHT22;38759;53.396;6.722;2022-08-18T17:23:57;22.40;99.90
52895;DHT22;38759;53.396;6.722;2022-08-18T17:29:25;22.20;99.90
52895;DHT22;38759;53.396;6.722;2022-08-18T17:32:02;22.20;99.90
52895;DHT22;38759;53.396;6.722;2022-08-18T17:34:39;22.10;99.90
52895;DHT22;38759;53.396;6.722;2022-08-18T17:37:09;22.00;99.90
52895;DHT22;38759;53.396;6.722;2022-08-18T17:39:43;21.90;99.90
52895;DHT22;38759;53.396;6.722;2022-08-18T17:42:10;21.90;99.90
52895;DHT22;38759;53.396;6.722;2022-08-18T17:44:55;21.90;99.90
52895;DHT22;38759;53.396;6.722;2022-08-18T17:47:29;21.80;99.90
52895;DHT22;38759;53.396;6.722;2022-08-18T17:49:56;21.70;99.90
52895;DHT22;38759;53.396;6.722;2022-08-18T17:52:45;21.60;99.90
52895;DHT22;38759;53.396;6.722;2022-08-18T17:55:25;21.60;99.90
52895;DHT22;38759;53.396;6.722;2022-08-18T17:58:04;21.50;99.90
52895;DHT22;38759;53.396;6.722;2022-08-18T18:00:31;21.40;99.90
52895;DHT22;38759;53.396;6.722;2022-08-18T18:02:57;21.40;99.90
52895;DHT22;38759;53.396;6.722;2022-08-18T18:05:28;21.30;99.90
52895;DHT22;38759;53.396;6.722;2022-08-18T18:07:58;21.30;99.90
52895;DHT22;38759;53.396;6.722;2022-08-18T18:10:35;21.20;99.90